Time,TemperatureF,DewpointF,PressureIn,WindDirection,WindDirectionDegrees,WindSpeedMPH,WindSpeedGustMPH,Humidity,HourlyPrecipIn,Conditions,Clouds,dailyrainin,SoftwareType,DateUTC
2013-03-08 00:00:00,43.1,33.3,30.17,NE,42,0.0,0.0,68,0.00,,CLR,0.00,VWS V14.01,2013-03-08 05:00:00,
2013-03-08 00:01:00,43.1,33.6,30.17,NE,42,0.0,1.0,69,0.00,,CLR,0.00,VWS V14.01,2013-03-08 05:01:00,
2013-03-08 00:06:00,42.8,33.3,30.17,NE,42,0.0,2.0,69,0.00,,CLR,0.00,VWS V14.01,2013-03-08 05:06:00,
2013-03-08 00:11:00,42.6,33.2,30.17,NE,42,0.0,3.0,69,0.00,,CLR,0.00,VWS V14.01,2013-03-08 05:11:00,
2013-03-08 00:16:00,42.5,33.1,30.17,NE,42,0.0,3.0,69,0.00,,CLR,0.00,VWS V14.01,2013-03-08 05:16:00,
2013-03-08 00:21:00,42.4,33.0,30.17,NE,42,1.0,3.0,69,0.00,,CLR,0.00,VWS V14.01,2013-03-08 05:21:00,
2013-03-08 00:26:00,42.3,32.9,30.17,NE,42,0.0,3.0,69,0.00,,CLR,0.00,VWS V14.01,2013-03-08 05:26:00,
2013-03-08 00:31:00,42.3,32.5,30.17,NE,42,1.0,2.0,68,0.00,,CLR,0.00,VWS V14.01,2013-03-08 05:31:00,
2013-03-08 00:36:00,42.4,32.6,30.17,NE,42,0.0,3.0,68,0.00,,CLR,0.00,VWS V14.01,2013-03-08 05:36:00,
2013-03-08 00:41:00,42.3,32.5,30.17,NE,42,1.0,4.0,68,0.00,,CLR,0.00,VWS V14.01,2013-03-08 05:41:00,
2013-03-08 00:46:00,42.3,32.5,30.17,NE,42,1.0,3.0,68,0.00,,CLR,0.00,VWS V14.01,2013-03-08 05:46:00,
2013-03-08 00:51:00,42.1,32.3,30.17,NE,42,0.0,3.0,68,0.00,,CLR,0.00,VWS V14.01,2013-03-08 05:51:00,
2013-03-08 00:56:00,41.8,32.4,30.17,NE,42,0.0,3.0,69,0.00,,CLR,0.00,VWS V14.01,2013-03-08 05:56:00,
2013-03-08 01:01:00,41.5,32.5,30.17,NE,42,0.0,1.0,70,0.00,,CLR,0.00,VWS V14.01,2013-03-08 06:01:00,
2013-03-08 01:06:00,41.2,32.5,30.17,NE,42,0.0,1.0,71,0.00,,CLR,0.00,VWS V14.01,2013-03-08 06:06:00,
2013-03-08 01:11:00,41.0,32.7,30.18,NE,42,1.0,1.0,72,0.00,,CLR,0.00,VWS V14.01,2013-03-08 06:11:00,
2013-03-08 01:16:00,40.7,32.4,30.18,NE,42,0.0,0.0,72,0.00,,CLR,0.00,VWS V14.01,2013-03-08 06:16:00,
2013-03-08 01:21:00,40.5,32.5,30.18,NE,42,0.0,1.0,73,0.00,,CLR,0.00,VWS V14.01,2013-03-08 06:21:00,
2013-03-08 01:26:00,40.2,32.6,30.18,NE,42,1.0,3.0,74,0.00,,CLR,0.00,VWS V14.01,2013-03-08 06:26:00,
2013-03-08 01:31:00,40.2,32.6,30.18,NE,42,1.0,1.0,74,0.00,,CLR,0.00,VWS V14.01,2013-03-08 06:31:00,
2013-03-08 01:36:00,40.0,32.1,30.18,NNW,346,5.0,5.0,73,0.00,,CLR,0.00,VWS V14.01,2013-03-08 06:36:00,
2013-03-08 01:41:00,40.0,32.1,30.18,NNW,348,1.0,5.0,73,0.00,,CLR,0.00,VWS V14.01,2013-03-08 06:41:00,
2013-03-08 01:46:00,39.9,32.3,30.18,NNW,348,1.0,2.0,74,0.00,,CLR,0.00,VWS V14.01,2013-03-08 06:46:00,
2013-03-08 01:51:00,39.8,31.9,30.18,NNW,348,0.0,2.0,73,0.00,,CLR,0.00,VWS V14.01,2013-03-08 06:51:00,
2013-03-08 01:56:00,39.6,31.7,30.18,NNW,348,0.0,2.0,73,0.00,,CLR,0.00,VWS V14.01,2013-03-08 06:56:00,
2013-03-08 02:01:00,39.4,31.8,30.18,NNW,348,0.0,1.0,74,0.00,,CLR,0.00,VWS V14.01,2013-03-08 07:01:00,
2013-03-08 02:06:00,39.2,31.6,30.18,North,350,0.0,2.0,74,0.00,,CLR,0.00,VWS V14.01,2013-03-08 07:06:00,
2013-03-08 02:11:00,39.0,31.8,30.18,North,350,0.0,2.0,75,0.00,,CLR,0.00,VWS V14.01,2013-03-08 07:11:00,
2013-03-08 02:16:00,38.8,31.9,30.18,North,350,1.0,2.0,76,0.00,,CLR,0.00,VWS V14.01,2013-03-08 07:16:00,
2013-03-08 02:21:00,38.7,31.8,30.18,North,350,0.0,2.0,76,0.00,,CLR,0.00,VWS V14.01,2013-03-08 07:21:00,
2013-03-08 02:26:00,38.5,31.9,30.18,North,350,1.0,2.0,77,0.00,,CLR,0.00,VWS V14.01,2013-03-08 07:26:00,
2013-03-08 02:31:00,38.4,31.8,30.18,North,350,0.0,1.0,77,0.00,,CLR,0.00,VWS V14.01,2013-03-08 07:31:00,
2013-03-08 02:36:00,38.2,31.6,30.17,NNW,346,1.0,2.0,77,0.00,,CLR,0.00,VWS V14.01,2013-03-08 07:36:00,
2013-03-08 02:41:00,38.1,31.5,30.17,North,355,1.0,3.0,77,0.00,,CLR,0.00,VWS V14.01,2013-03-08 07:41:00,
2013-03-08 02:46:00,38.0,31.4,30.17,NNW,339,0.0,2.0,77,0.00,,CLR,0.00,VWS V14.01,2013-03-08 07:46:00,
2013-03-08 02:51:00,37.9,31.4,30.17,NNW,339,2.0,3.0,77,0.00,,CLR,0.00,VWS V14.01,2013-03-08 07:51:00,
2013-03-08 02:56:00,37.9,31.4,30.17,NNW,341,1.0,3.0,77,0.00,,CLR,0.00,VWS V14.01,2013-03-08 07:56:00,
2013-03-08 03:01:00,37.8,31.2,30.17,NNW,331,2.0,3.0,77,0.00,,CLR,0.00,VWS V14.01,2013-03-08 08:01:00,
2013-03-08 03:06:00,37.7,31.1,30.17,NNW,331,1.0,3.0,77,0.00,,CLR,0.00,VWS V14.01,2013-03-08 08:06:00,
2013-03-08 03:11:00,37.6,31.1,30.17,NNW,331,0.0,3.0,77,0.00,,CLR,0.00,VWS V14.01,2013-03-08 08:11:00,
2013-03-08 03:16:00,37.5,30.6,30.17,NNW,331,0.0,0.0,76,0.00,,CLR,0.00,VWS V14.01,2013-03-08 08:16:00,
2013-03-08 03:21:00,37.3,30.8,30.17,NNW,331,1.0,1.0,77,0.00,,CLR,0.00,VWS V14.01,2013-03-08 08:21:00,
2013-03-08 03:26:00,37.1,30.6,30.17,NNW,331,0.0,1.0,77,0.00,,CLR,0.00,VWS V14.01,2013-03-08 08:26:00,
2013-03-08 03:31:00,37.0,30.5,30.17,NNW,331,0.0,0.0,77,0.00,,CLR,0.00,VWS V14.01,2013-03-08 08:31:00,
2013-03-08 03:36:00,36.8,30.3,30.17,NNW,331,0.0,0.0,77,0.00,,CLR,0.00,VWS V14.01,2013-03-08 08:36:00,
2013-03-08 03:41:00,36.6,30.1,30.17,NNW,331,0.0,0.0,77,0.00,,CLR,0.00,VWS V14.01,2013-03-08 08:41:00,
2013-03-08 03:46:00,36.5,30.3,30.17,NNW,331,0.0,0.0,78,0.00,,CLR,0.00,VWS V14.01,2013-03-08 08:46:00,
2013-03-08 03:51:00,36.3,30.4,30.17,NNW,331,0.0,0.0,79,0.00,,CLR,0.00,VWS V14.01,2013-03-08 08:51:00,
2013-03-08 03:56:00,36.1,30.2,30.17,NNW,331,1.0,1.0,79,0.00,,CLR,0.00,VWS V14.01,2013-03-08 08:56:00,
2013-03-08 04:01:00,36.0,30.4,30.17,NNW,331,0.0,1.0,80,0.00,,CLR,0.00,VWS V14.01,2013-03-08 09:01:00,
2013-03-08 04:06:00,35.9,30.3,30.17,NNW,331,0.0,1.0,80,0.00,,CLR,0.00,VWS V14.01,2013-03-08 09:06:00,
2013-03-08 04:11:00,35.7,30.1,30.18,NNW,331,0.0,1.0,80,0.00,,CLR,0.00,VWS V14.01,2013-03-08 09:11:00,
2013-03-08 04:16:00,35.7,30.1,30.18,NNW,331,0.0,1.0,80,0.00,,CLR,0.00,VWS V14.01,2013-03-08 09:16:00,
2013-03-08 04:21:00,35.6,30.0,30.18,NNW,331,0.0,1.0,80,0.00,,CLR,0.00,VWS V14.01,2013-03-08 09:21:00,
2013-03-08 04:26:00,35.5,30.0,30.18,NNW,331,0.0,1.0,80,0.00,,CLR,0.00,VWS V14.01,2013-03-08 09:26:00,
2013-03-08 04:31:00,35.4,29.9,30.18,NNW,331,0.0,0.0,80,0.00,,CLR,0.00,VWS V14.01,2013-03-08 09:31:00,
2013-03-08 04:36:00,35.4,29.9,30.18,NNW,331,0.0,0.0,80,0.00,,CLR,0.00,VWS V14.01,2013-03-08 09:36:00,
2013-03-08 04:41:00,35.3,29.8,30.18,NNW,331,0.0,0.0,80,0.00,,CLR,0.00,VWS V14.01,2013-03-08 09:41:00,
2013-03-08 04:46:00,35.2,29.7,30.18,NNW,331,0.0,0.0,80,0.00,,CLR,0.00,VWS V14.01,2013-03-08 09:46:00,
2013-03-08 04:51:00,35.1,29.6,30.18,NNW,331,0.0,0.0,80,0.00,,CLR,0.00,VWS V14.01,2013-03-08 09:51:00,
2013-03-08 04:56:00,35.0,29.5,30.19,NNW,331,0.0,0.0,80,0.00,,CLR,0.00,VWS V14.01,2013-03-08 09:56:00,
2013-03-08 05:01:00,34.9,29.7,30.19,NNW,331,0.0,0.0,81,0.00,,CLR,0.00,VWS V14.01,2013-03-08 10:01:00,
2013-03-08 05:06:00,34.8,29.6,30.19,NNW,331,0.0,0.0,81,0.00,,CLR,0.00,VWS V14.01,2013-03-08 10:06:00,
2013-03-08 05:11:00,34.8,29.6,30.19,NNW,331,0.0,0.0,81,0.00,,CLR,0.00,VWS V14.01,2013-03-08 10:11:00,
2013-03-08 05:16:00,34.7,29.5,30.19,NNW,331,0.0,0.0,81,0.00,,CLR,0.00,VWS V14.01,2013-03-08 10:16:00,
2013-03-08 05:21:00,34.7,29.5,30.19,NNW,331,0.0,0.0,81,0.00,,CLR,0.00,VWS V14.01,2013-03-08 10:21:00,
2013-03-08 05:26:00,34.6,29.4,30.19,NNW,331,0.0,0.0,81,0.00,,CLR,0.00,VWS V14.01,2013-03-08 10:26:00,
2013-03-08 05:31:00,34.5,29.3,30.20,NNW,331,0.0,0.0,81,0.00,,CLR,0.00,VWS V14.01,2013-03-08 10:31:00,
2013-03-08 05:36:00,34.4,29.2,30.20,NNW,331,0.0,1.0,81,0.00,,CLR,0.00,VWS V14.01,2013-03-08 10:36:00,
2013-03-08 05:41:00,34.3,29.1,30.20,NNW,331,0.0,1.0,81,0.00,,CLR,0.00,VWS V14.01,2013-03-08 10:41:00,
2013-03-08 05:46:00,34.3,29.1,30.20,NNW,331,0.0,0.0,81,0.00,,CLR,0.00,VWS V14.01,2013-03-08 10:46:00,
2013-03-08 05:51:00,34.2,29.0,30.20,NNW,331,0.0,0.0,81,0.00,,CLR,0.00,VWS V14.01,2013-03-08 10:51:00,
2013-03-08 05:56:00,34.2,29.0,30.20,NNW,331,0.0,0.0,81,0.00,,CLR,0.00,VWS V14.01,2013-03-08 10:56:00,
2013-03-08 06:01:00,34.1,28.9,30.20,NNW,331,0.0,1.0,81,0.00,,CLR,0.00,VWS V14.01,2013-03-08 11:01:00,
2013-03-08 06:06:00,34.1,28.9,30.20,NNW,331,0.0,1.0,81,0.00,,CLR,0.00,VWS V14.01,2013-03-08 11:06:00,
2013-03-08 06:11:00,34.1,28.9,30.20,NNW,331,0.0,1.0,81,0.00,,CLR,0.00,VWS V14.01,2013-03-08 11:11:00,
2013-03-08 06:16:00,34.1,28.9,30.20,NNW,331,0.0,0.0,81,0.00,,CLR,0.00,VWS V14.01,2013-03-08 11:16:00,
2013-03-08 06:21:00,34.0,28.8,30.20,NNW,331,0.0,1.0,81,0.00,,CLR,0.00,VWS V14.01,2013-03-08 11:21:00,
2013-03-08 06:26:00,34.0,28.8,30.20,NNW,331,0.0,2.0,81,0.00,,CLR,0.00,VWS V14.01,2013-03-08 11:26:00,
2013-03-08 06:31:00,33.9,28.7,30.20,NNW,331,0.0,0.0,81,0.00,,CLR,0.00,VWS V14.01,2013-03-08 11:31:00,
2013-03-08 06:36:00,33.8,28.6,30.20,NNW,331,0.0,2.0,81,0.00,,CLR,0.00,VWS V14.01,2013-03-08 11:36:00,
2013-03-08 06:40:00,33.7,28.5,30.20,NNW,331,0.0,2.0,81,0.00,,CLR,0.00,VWS V14.01,2013-03-08 11:40:00,
2013-03-08 06:45:00,33.7,28.5,30.21,NNW,331,0.0,0.0,81,0.00,,CLR,0.00,VWS V14.01,2013-03-08 11:45:00,
2013-03-08 06:50:00,33.6,28.4,30.21,NNW,331,0.0,1.0,81,0.00,,CLR,0.00,VWS V14.01,2013-03-08 11:50:00,
2013-03-08 06:56:00,33.6,28.7,30.21,NNW,331,0.0,1.0,82,0.00,,CLR,0.00,VWS V14.01,2013-03-08 11:56:00,
2013-03-08 07:01:00,33.6,28.7,30.21,NNW,331,0.0,1.0,82,0.00,,SKC,0.00,VWS V14.01,2013-03-08 12:01:00,
2013-03-08 07:06:00,33.7,28.8,30.21,NNW,331,0.0,1.0,82,0.00,,SKC,0.00,VWS V14.01,2013-03-08 12:06:00,
2013-03-08 07:11:00,33.8,28.9,30.21,NNW,331,1.0,2.0,82,0.00,,SKC,0.00,VWS V14.01,2013-03-08 12:11:00,
2013-03-08 07:16:00,33.9,28.7,30.21,NNW,331,3.0,3.0,81,0.00,,SKC,0.00,VWS V14.01,2013-03-08 12:16:00,
2013-03-08 07:20:00,34.2,29.0,30.21,NNW,331,1.0,3.0,81,0.00,,SKC,0.00,VWS V14.01,2013-03-08 12:20:00,
2013-03-08 07:25:00,34.4,29.2,30.21,NNE,30,2.0,3.0,81,0.00,,SKC,0.00,VWS V14.01,2013-03-08 12:25:00,
2013-03-08 07:30:00,34.8,29.3,30.21,NNW,333,2.0,3.0,80,0.00,,SKC,0.00,VWS V14.01,2013-03-08 12:30:00,
2013-03-08 07:35:00,35.2,29.4,30.21,NNE,24,1.0,5.0,79,0.00,,SKC,0.00,VWS V14.01,2013-03-08 12:35:00,
2013-03-08 07:40:00,35.7,29.8,30.22,NW,319,2.0,5.0,79,0.00,,SKC,0.00,VWS V14.01,2013-03-08 12:40:00,
2013-03-08 07:45:00,36.2,29.7,30.22,NNW,348,2.0,3.0,77,0.00,,SKC,0.00,VWS V14.01,2013-03-08 12:45:00,
2013-03-08 07:50:00,36.8,30.0,30.22,NNE,30,0.0,4.0,76,0.00,,SKC,0.00,VWS V14.01,2013-03-08 12:50:00,
2013-03-08 07:55:00,37.3,30.1,30.22,NW,311,4.0,8.0,75,0.00,,SKC,0.00,VWS V14.01,2013-03-08 12:55:00,
2013-03-08 08:00:00,37.8,30.3,30.22,West,277,0.0,4.0,74,0.00,,SKC,0.00,VWS V14.01,2013-03-08 13:00:00,
2013-03-08 08:05:00,38.3,30.4,30.22,NNE,22,1.0,5.0,73,0.00,,SKC,0.00,VWS V14.01,2013-03-08 13:05:00,
2013-03-08 08:11:00,38.8,30.6,30.22,West,270,2.0,5.0,72,0.00,,SKC,0.00,VWS V14.01,2013-03-08 13:11:00,
2013-03-08 08:15:00,39.4,30.4,30.23,North,349,2.0,8.0,70,0.00,,SKC,0.00,VWS V14.01,2013-03-08 13:15:00,
2013-03-08 08:21:00,39.8,30.8,30.23,WSW,251,3.0,8.0,70,0.00,,SKC,0.00,VWS V14.01,2013-03-08 13:21:00,
2013-03-08 08:26:00,40.3,31.0,30.23,NW,311,1.0,8.0,69,0.00,,SKC,0.00,VWS V14.01,2013-03-08 13:26:00,
2013-03-08 08:31:00,40.9,31.5,30.23,ENE,69,1.0,3.0,69,0.00,,SKC,0.00,VWS V14.01,2013-03-08 13:31:00,
2013-03-08 08:36:00,41.4,31.3,30.23,NNE,33,1.0,4.0,67,0.00,,SKC,0.00,VWS V14.01,2013-03-08 13:36:00,
2013-03-08 08:41:00,42.0,31.1,30.22,WNW,292,0.0,5.0,65,0.00,,SKC,0.00,VWS V14.01,2013-03-08 13:41:00,
2013-03-08 08:46:00,42.5,32.0,30.22,ENE,63,4.0,5.0,66,0.00,,SKC,0.00,VWS V14.01,2013-03-08 13:46:00,
2013-03-08 08:51:00,43.0,30.9,30.22,NW,304,3.0,6.0,62,0.00,,SKC,0.00,VWS V14.01,2013-03-08 13:51:00,
2013-03-08 08:56:00,43.4,31.3,30.22,ESE,111,3.0,8.0,62,0.00,,SKC,0.00,VWS V14.01,2013-03-08 13:56:00,
2013-03-08 09:01:00,43.8,31.2,30.23,NW,317,4.0,6.0,61,0.00,,SKC,0.00,VWS V14.01,2013-03-08 14:01:00,
2013-03-08 09:06:00,44.3,30.9,30.22,NW,324,1.0,6.0,59,0.00,,SKC,0.00,VWS V14.01,2013-03-08 14:06:00,
2013-03-08 09:10:00,44.7,31.3,30.22,WNW,298,6.0,7.0,59,0.00,,SKC,0.00,VWS V14.01,2013-03-08 14:10:00,
2013-03-08 09:15:00,45.1,31.2,30.22,NNE,31,2.0,5.0,58,0.00,,SKC,0.00,VWS V14.01,2013-03-08 14:15:00,
2013-03-08 09:20:00,45.4,31.1,30.22,North,5,2.0,5.0,57,0.00,,SKC,0.00,VWS V14.01,2013-03-08 14:20:00,
2013-03-08 09:25:00,45.8,31.5,30.22,NW,306,4.0,5.0,57,0.00,,SKC,0.00,VWS V14.01,2013-03-08 14:25:00,
2013-03-08 09:30:00,46.3,31.5,30.22,NW,311,4.0,6.0,56,0.00,,SKC,0.00,VWS V14.01,2013-03-08 14:30:00,
2013-03-08 09:35:00,46.7,31.0,30.22,NW,314,3.0,6.0,54,0.00,,SKC,0.00,VWS V14.01,2013-03-08 14:35:00,
2013-03-08 09:40:00,47.2,31.4,30.22,WNW,295,0.0,9.0,54,0.00,,SKC,0.00,VWS V14.01,2013-03-08 14:40:00,
2013-03-08 09:45:00,47.5,30.8,30.22,NW,306,3.0,9.0,52,0.00,,SKC,0.00,VWS V14.01,2013-03-08 14:45:00,
2013-03-08 09:50:00,47.5,30.8,30.22,NNE,20,4.0,9.0,52,0.00,,SKC,0.00,VWS V14.01,2013-03-08 14:50:00,
2013-03-08 09:55:00,47.8,30.6,30.22,ENE,57,1.0,9.0,51,0.00,,SKC,0.00,VWS V14.01,2013-03-08 14:55:00,
2013-03-08 10:00:00,48.1,30.4,30.22,NE,56,5.0,6.0,50,0.00,,SKC,0.00,VWS V14.01,2013-03-08 15:00:00,
2013-03-08 10:05:00,48.4,31.1,30.21,NW,305,3.0,6.0,51,0.00,,SKC,0.00,VWS V14.01,2013-03-08 15:05:00,
2013-03-08 10:10:00,49.1,30.8,30.22,SW,228,1.0,6.0,49,0.00,,SKC,0.00,VWS V14.01,2013-03-08 15:10:00,
2013-03-08 10:15:00,49.7,30.8,30.22,NNE,29,2.0,3.0,48,0.00,,SKC,0.00,VWS V14.01,2013-03-08 15:15:00,
2013-03-08 10:20:00,49.7,30.3,30.21,NW,304,3.0,9.0,47,0.00,,SKC,0.00,VWS V14.01,2013-03-08 15:20:00,
2013-03-08 10:25:00,49.8,30.9,30.21,NE,50,1.0,9.0,48,0.00,,SKC,0.00,VWS V14.01,2013-03-08 15:25:00,
2013-03-08 10:31:00,49.7,31.3,30.21,NE,48,3.0,8.0,49,0.00,,CLR,0.00,VWS V14.01,2013-03-08 15:31:00,
2013-03-08 10:36:00,50.0,31.1,30.20,NW,306,3.0,8.0,48,0.00,,CLR,0.00,VWS V14.01,2013-03-08 15:36:00,
2013-03-08 10:40:00,50.2,30.2,30.20,NW,323,0.0,8.0,46,0.00,,CLR,0.00,VWS V14.01,2013-03-08 15:40:00,
2013-03-08 10:45:00,50.4,31.0,30.20,NNE,32,5.0,7.0,47,0.00,,CLR,0.00,VWS V14.01,2013-03-08 15:45:00,
2013-03-08 10:51:00,50.4,30.4,30.19,North,5,6.0,7.0,46,0.00,,CLR,0.00,VWS V14.01,2013-03-08 15:51:00,
2013-03-08 10:56:00,50.4,30.4,30.19,NW,313,1.0,8.0,46,0.00,,CLR,0.00,VWS V14.01,2013-03-08 15:56:00,
2013-03-08 11:01:00,50.9,30.9,30.19,NNE,21,1.0,9.0,46,0.00,,CLR,0.00,VWS V14.01,2013-03-08 16:01:00,
2013-03-08 11:06:00,51.3,29.0,30.18,ENE,74,2.0,9.0,42,0.00,,CLR,0.00,VWS V14.01,2013-03-08 16:06:00,
2013-03-08 11:11:00,51.1,29.4,30.18,NNW,327,1.0,9.0,43,0.00,,CLR,0.00,VWS V14.01,2013-03-08 16:11:00,
2013-03-08 11:16:00,51.4,29.7,30.18,NE,46,2.0,6.0,43,0.00,,CLR,0.00,VWS V14.01,2013-03-08 16:16:00,
2013-03-08 11:21:00,51.8,30.6,30.18,WNW,290,1.0,7.0,44,0.00,,CLR,0.00,VWS V14.01,2013-03-08 16:21:00,
2013-03-08 11:26:00,52.4,29.4,30.18,NW,311,4.0,7.0,41,0.00,,CLR,0.00,VWS V14.01,2013-03-08 16:26:00,
2013-03-08 11:31:00,52.4,30.0,30.18,WNW,296,3.0,4.0,42,0.00,,CLR,0.00,VWS V14.01,2013-03-08 16:31:00,
2013-03-08 11:35:00,52.7,29.7,30.17,NNE,32,5.0,7.0,41,0.00,,CLR,0.00,VWS V14.01,2013-03-08 16:35:00,
2013-03-08 11:40:00,52.7,31.4,30.17,WNW,295,3.0,7.0,44,0.00,,CLR,0.00,VWS V14.01,2013-03-08 16:40:00,
2013-03-08 11:45:00,52.7,29.7,30.16,NW,319,3.0,7.0,41,0.00,,CLR,0.00,VWS V14.01,2013-03-08 16:45:00,
2013-03-08 11:50:00,52.8,30.4,30.16,WNW,291,4.0,7.0,42,0.00,,CLR,0.00,VWS V14.01,2013-03-08 16:50:00,
2013-03-08 11:55:00,53.5,30.4,30.17,NW,315,5.0,8.0,41,0.00,,CLR,0.00,VWS V14.01,2013-03-08 16:55:00,
2013-03-08 12:00:00,52.9,28.6,30.17,West,279,3.0,7.0,39,0.00,,CLR,0.00,VWS V14.01,2013-03-08 17:00:00,
2013-03-08 12:05:00,52.5,28.3,30.16,SW,234,5.0,8.0,39,0.00,,CLR,0.00,VWS V14.01,2013-03-08 17:05:00,
2013-03-08 12:10:00,53.0,30.0,30.17,NW,317,6.0,9.0,41,0.00,,CLR,0.00,VWS V14.01,2013-03-08 17:10:00,
2013-03-08 12:15:00,53.2,28.9,30.16,WNW,290,5.0,7.0,39,0.00,,CLR,0.00,VWS V14.01,2013-03-08 17:15:00,
2013-03-08 12:20:00,53.5,30.4,30.16,WNW,292,4.0,7.0,41,0.00,,CLR,0.00,VWS V14.01,2013-03-08 17:20:00,
2013-03-08 12:25:00,53.9,29.5,30.16,NNW,331,2.0,7.0,39,0.00,,CLR,0.00,VWS V14.01,2013-03-08 17:25:00,
2013-03-08 12:30:00,54.2,30.4,30.16,NE,37,2.0,7.0,40,0.00,,CLR,0.00,VWS V14.01,2013-03-08 17:30:00,
2013-03-08 12:35:00,54.5,28.8,30.15,NNE,26,4.0,7.0,37,0.00,,CLR,0.00,VWS V14.01,2013-03-08 17:35:00,
2013-03-08 12:40:00,54.2,28.5,30.16,NNW,340,5.0,10.0,37,0.00,,CLR,0.00,VWS V14.01,2013-03-08 17:40:00,
2013-03-08 12:45:00,54.3,29.9,30.15,NE,38,2.0,2.0,39,0.00,,CLR,0.00,VWS V14.01,2013-03-08 17:45:00,
2013-03-08 12:50:00,54.8,29.7,30.15,NE,42,3.0,8.0,38,0.00,,CLR,0.00,VWS V14.01,2013-03-08 17:50:00,
2013-03-08 12:55:00,54.8,29.7,30.15,NW,308,6.0,12.0,38,0.00,,CLR,0.00,VWS V14.01,2013-03-08 17:55:00,
2013-03-08 13:00:00,54.6,28.9,30.15,WSW,257,3.0,8.0,37,0.00,,CLR,0.00,VWS V14.01,2013-03-08 18:00:00,
2013-03-08 13:05:00,54.6,29.5,30.14,NNW,339,5.0,8.0,38,0.00,,CLR,0.00,VWS V14.01,2013-03-08 18:05:00,
2013-03-08 13:10:00,54.8,28.4,30.14,WSW,244,3.0,8.0,36,0.00,,CLR,0.00,VWS V14.01,2013-03-08 18:10:00,
2013-03-08 13:15:00,54.7,29.0,30.14,WNW,295,1.0,7.0,37,0.00,,CLR,0.00,VWS V14.01,2013-03-08 18:15:00,
2013-03-08 13:20:00,54.9,29.8,30.13,NE,34,3.0,8.0,38,0.00,,CLR,0.00,VWS V14.01,2013-03-08 18:20:00,
2013-03-08 13:25:00,55.2,30.1,30.13,NW,318,3.0,10.0,38,0.00,,CLR,0.00,VWS V14.01,2013-03-08 18:25:00,
2013-03-08 13:30:00,55.3,29.5,30.13,East,81,3.0,7.0,37,0.00,,CLR,0.00,VWS V14.01,2013-03-08 18:30:00,
2013-03-08 13:35:00,55.5,30.3,30.12,WNW,294,6.0,9.0,38,0.00,,CLR,0.00,VWS V14.01,2013-03-08 18:35:00,
2013-03-08 13:40:00,55.5,29.7,30.12,WNW,303,7.0,10.0,37,0.00,,CLR,0.00,VWS V14.01,2013-03-08 18:40:00,
2013-03-08 13:45:00,55.6,29.1,30.12,West,263,1.0,8.0,36,0.00,,CLR,0.00,VWS V14.01,2013-03-08 18:45:00,
2013-03-08 13:50:00,55.8,29.9,30.11,NW,324,0.0,8.0,37,0.00,,CLR,0.00,VWS V14.01,2013-03-08 18:50:00,
2013-03-08 13:55:00,56.4,29.8,30.11,WSW,237,2.0,9.0,36,0.00,,CLR,0.00,VWS V14.01,2013-03-08 18:55:00,
2013-03-08 14:00:00,56.1,28.8,30.11,NW,307,3.0,8.0,35,0.00,,SKC,0.00,VWS V14.01,2013-03-08 19:00:00,
2013-03-08 14:05:00,56.0,30.1,30.11,West,271,3.0,8.0,37,0.00,,SKC,0.00,VWS V14.01,2013-03-08 19:05:00,
2013-03-08 14:10:00,56.3,30.4,30.11,West,276,3.0,8.0,37,0.00,,SKC,0.00,VWS V14.01,2013-03-08 19:10:00,
2013-03-08 14:15:00,56.5,29.9,30.11,East,80,3.0,5.0,36,0.00,,SKC,0.00,VWS V14.01,2013-03-08 19:15:00,
2013-03-08 14:20:00,56.8,30.1,30.11,NW,305,3.0,10.0,36,0.00,,SKC,0.00,VWS V14.01,2013-03-08 19:20:00,
2013-03-08 14:25:00,56.6,30.6,30.11,NW,323,3.0,10.0,37,0.00,,SKC,0.00,VWS V14.01,2013-03-08 19:25:00,
2013-03-08 14:30:00,56.9,29.5,30.11,NW,324,5.0,8.0,35,0.00,,SKC,0.00,VWS V14.01,2013-03-08 19:30:00,
2013-03-08 14:35:00,57.0,30.3,30.11,WNW,298,3.0,8.0,36,0.00,,SKC,0.00,VWS V14.01,2013-03-08 19:35:00,
2013-03-08 14:40:00,57.0,29.6,30.11,WNW,300,2.0,8.0,35,0.00,,SKC,0.00,VWS V14.01,2013-03-08 19:40:00,
2013-03-08 14:45:00,57.0,30.3,30.11,WSW,247,4.0,5.0,36,0.00,,SKC,0.00,VWS V14.01,2013-03-08 19:45:00,
2013-03-08 14:50:00,57.0,29.6,30.11,ENE,63,4.0,11.0,35,0.00,,SKC,0.00,VWS V14.01,2013-03-08 19:50:00,
2013-03-08 14:55:00,57.0,28.2,30.11,NW,320,3.0,12.0,33,0.00,,SKC,0.00,VWS V14.01,2013-03-08 19:55:00,
2013-03-08 15:00:00,57.2,28.4,30.11,East,89,5.0,7.0,33,0.00,,SKC,0.00,VWS V14.01,2013-03-08 20:00:00,
2013-03-08 15:05:00,57.3,29.2,30.11,NW,317,2.0,7.0,34,0.00,,SKC,0.00,VWS V14.01,2013-03-08 20:05:00,
2013-03-08 15:10:00,57.2,29.1,30.11,WSW,256,3.0,7.0,34,0.00,,SKC,0.00,VWS V14.01,2013-03-08 20:10:00,
2013-03-08 15:15:00,56.9,28.8,30.11,WNW,295,5.0,9.0,34,0.00,,SKC,0.00,VWS V14.01,2013-03-08 20:15:00,
2013-03-08 15:20:00,56.6,29.3,30.11,WSW,254,3.0,9.0,35,0.00,,SKC,0.00,VWS V14.01,2013-03-08 20:20:00,
2013-03-08 15:25:00,56.7,28.7,30.11,WNW,284,2.0,10.0,34,0.00,,SKC,0.00,VWS V14.01,2013-03-08 20:25:00,
2013-03-08 15:30:00,56.9,29.5,30.11,West,268,3.0,8.0,35,0.00,,SKC,0.00,VWS V14.01,2013-03-08 20:30:00,
2013-03-08 15:35:00,57.0,29.6,30.11,South,169,4.0,8.0,35,0.00,,SKC,0.00,VWS V14.01,2013-03-08 20:35:00,
2013-03-08 15:40:00,56.9,28.8,30.11,NW,306,4.0,10.0,34,0.00,,SKC,0.00,VWS V14.01,2013-03-08 20:40:00,
2013-03-08 15:45:00,56.7,28.7,30.11,WNW,285,6.0,8.0,34,0.00,,SKC,0.00,VWS V14.01,2013-03-08 20:45:00,
2013-03-08 15:50:00,56.7,28.7,30.11,West,272,2.0,10.0,34,0.00,,SKC,0.00,VWS V14.01,2013-03-08 20:50:00,
2013-03-08 15:55:00,56.8,28.0,30.11,WSW,242,3.0,10.0,33,0.00,,SKC,0.00,VWS V14.01,2013-03-08 20:55:00,
2013-03-08 16:00:00,57.0,29.6,30.11,ESE,105,2.0,10.0,35,0.00,,SKC,0.00,VWS V14.01,2013-03-08 21:00:00,
2013-03-08 16:05:00,57.1,28.3,30.11,West,269,3.0,10.0,33,0.00,,SKC,0.00,VWS V14.01,2013-03-08 21:05:00,
2013-03-08 16:10:00,57.0,28.2,30.11,WNW,288,3.0,10.0,33,0.00,,SKC,0.00,VWS V14.01,2013-03-08 21:10:00,
2013-03-08 16:15:00,57.0,27.5,30.11,SW,224,1.0,8.0,32,0.00,,SKC,0.00,VWS V14.01,2013-03-08 21:15:00,
2013-03-08 16:20:00,57.3,27.7,30.11,WNW,302,4.0,8.0,32,0.00,,SKC,0.00,VWS V14.01,2013-03-08 21:20:00,
2013-03-08 16:25:00,57.2,28.4,30.11,WNW,294,2.0,8.0,33,0.00,,SKC,0.00,VWS V14.01,2013-03-08 21:25:00,
2013-03-08 16:30:00,57.2,29.1,30.11,NNW,342,4.0,7.0,34,0.00,,SKC,0.00,VWS V14.01,2013-03-08 21:30:00,
2013-03-08 16:35:00,57.0,28.2,30.11,NW,305,2.0,7.0,33,0.00,,SKC,0.00,VWS V14.01,2013-03-08 21:35:00,
2013-03-08 16:40:00,57.1,29.0,30.12,WNW,303,5.0,7.0,34,0.00,,SKC,0.00,VWS V14.01,2013-03-08 21:40:00,
2013-03-08 16:45:00,57.1,29.0,30.11,NNW,333,0.0,6.0,34,0.00,,SKC,0.00,VWS V14.01,2013-03-08 21:45:00,
2013-03-08 16:50:00,56.9,28.8,30.12,SSE,163,1.0,6.0,34,0.00,,SKC,0.00,VWS V14.01,2013-03-08 21:50:00,
2013-03-08 16:55:00,56.6,29.3,30.12,NW,313,1.0,8.0,35,0.00,,SKC,0.00,VWS V14.01,2013-03-08 21:55:00,
2013-03-08 17:00:00,56.4,29.1,30.12,NW,317,2.0,5.0,35,0.00,,CLR,0.00,VWS V14.01,2013-03-08 22:00:00,
2013-03-08 17:05:00,56.2,28.9,30.12,SSE,154,2.0,6.0,35,0.00,,CLR,0.00,VWS V14.01,2013-03-08 22:05:00,
2013-03-08 17:10:00,55.9,28.0,30.12,NW,311,1.0,7.0,34,0.00,,CLR,0.00,VWS V14.01,2013-03-08 22:10:00,
2013-03-08 17:15:00,55.7,28.5,30.12,NE,51,7.0,7.0,35,0.00,,CLR,0.00,VWS V14.01,2013-03-08 22:15:00,
2013-03-08 17:20:00,55.5,29.0,30.12,West,269,3.0,7.0,36,0.00,,CLR,0.00,VWS V14.01,2013-03-08 22:20:00,
2013-03-08 17:25:00,55.3,29.5,30.12,North,5,4.0,7.0,37,0.00,,CLR,0.00,VWS V14.01,2013-03-08 22:25:00,
2013-03-08 17:30:00,55.2,28.7,30.12,WNW,300,2.0,4.0,36,0.00,,CLR,0.00,VWS V14.01,2013-03-08 22:30:00,
2013-03-08 17:35:00,55.0,29.2,30.12,NW,313,1.0,5.0,37,0.00,,CLR,0.00,VWS V14.01,2013-03-08 22:35:00,
2013-03-08 17:40:00,54.8,29.0,30.12,WNW,299,5.0,6.0,37,0.00,,CLR,0.00,VWS V14.01,2013-03-08 22:40:00,
2013-03-08 17:45:00,54.7,29.6,30.12,WNW,293,3.0,3.0,38,0.00,,CLR,0.00,VWS V14.01,2013-03-08 22:45:00,
2013-03-08 17:50:00,54.6,30.2,30.12,ESE,118,1.0,3.0,39,0.00,,CLR,0.00,VWS V14.01,2013-03-08 22:50:00,
2013-03-08 17:55:00,54.4,30.0,30.12,ESE,118,2.0,3.0,39,0.00,,CLR,0.00,VWS V14.01,2013-03-08 22:55:00,
2013-03-08 18:00:00,54.1,30.3,30.12,WNW,298,2.0,3.0,40,0.00,,SKC,0.00,VWS V14.01,2013-03-08 23:00:00,
2013-03-08 18:05:00,53.8,29.4,30.12,NW,318,2.0,5.0,39,0.00,,SKC,0.00,VWS V14.01,2013-03-08 23:05:00,
2013-03-08 18:10:00,53.6,29.9,30.12,West,273,2.0,5.0,40,0.00,,SKC,0.00,VWS V14.01,2013-03-08 23:10:00,
2013-03-08 18:15:00,53.5,29.8,30.13,NW,306,2.0,3.0,40,0.00,,SKC,0.00,VWS V14.01,2013-03-08 23:15:00,
2013-03-08 18:20:00,53.3,29.6,30.13,NW,304,1.0,5.0,40,0.00,,SKC,0.00,VWS V14.01,2013-03-08 23:20:00,
2013-03-08 18:25:00,53.0,30.0,30.13,NW,309,1.0,5.0,41,0.00,,SKC,0.00,VWS V14.01,2013-03-08 23:25:00,
2013-03-08 18:30:00,52.7,30.3,30.13,WNW,296,1.0,3.0,42,0.00,,SKC,0.00,VWS V14.01,2013-03-08 23:30:00,
2013-03-08 18:35:00,52.3,30.5,30.13,WNW,294,0.0,3.0,43,0.00,,SKC,0.00,VWS V14.01,2013-03-08 23:35:00,
2013-03-08 18:40:00,51.9,30.7,30.13,WNW,294,1.0,3.0,44,0.00,,SKC,0.00,VWS V14.01,2013-03-08 23:40:00,
2013-03-08 18:45:00,51.5,30.9,30.13,WNW,294,0.0,1.0,45,0.00,,SKC,0.00,VWS V14.01,2013-03-08 23:45:00,
2013-03-08 18:50:00,51.2,31.1,30.13,WNW,294,0.0,1.0,46,0.00,,SKC,0.00,VWS V14.01,2013-03-08 23:50:00,
2013-03-08 18:55:00,50.8,30.8,30.13,WNW,294,0.0,1.0,46,0.00,,SKC,0.00,VWS V14.01,2013-03-08 23:55:00,
2013-03-08 19:00:00,50.5,31.0,30.13,WNW,294,0.0,0.0,47,0.00,,CLR,0.00,VWS V14.01,2013-03-09 00:00:00,
2013-03-08 19:05:00,50.3,30.9,30.14,WNW,294,1.0,1.0,47,0.00,,CLR,0.00,VWS V14.01,2013-03-09 00:05:00,
2013-03-08 19:10:00,50.1,30.7,30.14,WNW,294,1.0,2.0,47,0.00,,CLR,0.00,VWS V14.01,2013-03-09 00:10:00,
2013-03-08 19:15:00,50.0,30.6,30.14,WNW,294,1.0,2.0,47,0.00,,CLR,0.00,VWS V14.01,2013-03-09 00:15:00,
2013-03-08 19:20:00,49.9,30.5,30.14,WNW,294,0.0,2.0,47,0.00,,CLR,0.00,VWS V14.01,2013-03-09 00:20:00,
2013-03-08 19:25:00,49.7,30.3,30.15,WNW,294,0.0,2.0,47,0.00,,CLR,0.00,VWS V14.01,2013-03-09 00:25:00,
2013-03-08 19:30:00,49.6,30.7,30.15,WNW,294,0.0,0.0,48,0.00,,CLR,0.00,VWS V14.01,2013-03-09 00:30:00,
2013-03-08 19:35:00,49.4,30.5,30.15,WNW,294,0.0,1.0,48,0.00,,CLR,0.00,VWS V14.01,2013-03-09 00:35:00,
2013-03-08 19:40:00,49.1,30.8,30.15,WNW,294,0.0,1.0,49,0.00,,CLR,0.00,VWS V14.01,2013-03-09 00:40:00,
2013-03-08 19:45:00,48.8,31.0,30.15,WNW,294,0.0,0.0,50,0.00,,CLR,0.00,VWS V14.01,2013-03-09 00:45:00,
2013-03-08 19:50:00,48.6,31.3,30.16,WNW,294,0.0,0.0,51,0.00,,CLR,0.00,VWS V14.01,2013-03-09 00:50:00,
2013-03-08 19:55:00,48.1,32.3,30.16,WNW,294,0.0,0.0,54,0.00,,CLR,0.00,VWS V14.01,2013-03-09 00:55:00,
2013-03-08 20:00:00,47.7,32.3,30.16,WNW,294,0.0,0.0,55,0.00,,CLR,0.00,VWS V14.01,2013-03-09 01:00:00,
2013-03-08 20:05:00,47.3,32.0,30.16,WNW,294,0.0,0.0,55,0.00,,CLR,0.00,VWS V14.01,2013-03-09 01:05:00,
2013-03-08 20:10:00,47.1,32.2,30.16,WNW,294,0.0,1.0,56,0.00,,CLR,0.00,VWS V14.01,2013-03-09 01:10:00,
2013-03-08 20:15:00,46.8,32.8,30.16,WNW,294,0.0,0.0,58,0.00,,CLR,0.00,VWS V14.01,2013-03-09 01:15:00,
2013-03-08 20:20:00,46.5,32.5,30.17,WNW,294,1.0,1.0,58,0.00,,CLR,0.00,VWS V14.01,2013-03-09 01:20:00,
2013-03-08 20:25:00,46.4,32.0,30.17,WNW,294,1.0,1.0,57,0.00,,CLR,0.00,VWS V14.01,2013-03-09 01:25:00,
2013-03-08 20:30:00,46.5,31.7,30.17,WNW,294,0.0,1.0,56,0.00,,SKC,0.00,VWS V14.01,2013-03-09 01:30:00,
2013-03-08 20:35:00,46.5,31.7,30.17,WNW,294,0.0,1.0,56,0.00,,SKC,0.00,VWS V14.01,2013-03-09 01:35:00,
2013-03-08 20:40:00,46.4,31.6,30.17,WNW,294,0.0,1.0,56,0.00,,SKC,0.00,VWS V14.01,2013-03-09 01:40:00,
2013-03-08 20:45:00,46.4,31.1,30.18,WNW,294,0.0,1.0,55,0.00,,SKC,0.00,VWS V14.01,2013-03-09 01:45:00,
2013-03-08 20:50:00,46.4,31.1,30.18,WNW,294,0.0,1.0,55,0.00,,SKC,0.00,VWS V14.01,2013-03-09 01:50:00,
2013-03-08 20:55:00,46.4,31.1,30.18,WNW,294,0.0,1.0,55,0.00,,SKC,0.00,VWS V14.01,2013-03-09 01:55:00,
2013-03-08 21:00:00,46.3,31.9,30.18,WNW,294,0.0,0.0,57,0.00,,CLR,0.00,VWS V14.01,2013-03-09 02:00:00,
2013-03-08 21:05:00,46.2,31.8,30.18,WNW,294,0.0,0.0,57,0.00,,CLR,0.00,VWS V14.01,2013-03-09 02:05:00,
2013-03-08 21:10:00,46.1,31.7,30.18,WNW,294,0.0,1.0,57,0.00,,CLR,0.00,VWS V14.01,2013-03-09 02:10:00,
2013-03-08 21:15:00,46.0,31.6,30.19,WNW,294,0.0,0.0,57,0.00,,CLR,0.00,VWS V14.01,2013-03-09 02:15:00,
2013-03-08 21:20:00,45.8,31.9,30.19,WNW,294,0.0,0.0,58,0.00,,CLR,0.00,VWS V14.01,2013-03-09 02:20:00,
2013-03-08 21:25:00,45.6,31.7,30.19,WNW,294,0.0,0.0,58,0.00,,CLR,0.00,VWS V14.01,2013-03-09 02:25:00,
2013-03-08 21:30:00,45.3,31.4,30.19,WNW,294,0.0,0.0,58,0.00,,CLR,0.00,VWS V14.01,2013-03-09 02:30:00,
2013-03-08 21:35:00,45.1,32.1,30.20,WNW,294,0.0,0.0,60,0.00,,CLR,0.00,VWS V14.01,2013-03-09 02:35:00,
2013-03-08 21:40:00,44.8,32.2,30.20,WNW,294,0.0,0.0,61,0.00,,CLR,0.00,VWS V14.01,2013-03-09 02:40:00,
2013-03-08 21:45:00,44.6,32.4,30.20,WNW,294,0.0,0.0,62,0.00,,CLR,0.00,VWS V14.01,2013-03-09 02:45:00,
2013-03-08 21:50:00,44.5,32.7,30.21,WNW,294,0.0,0.0,63,0.00,,CLR,0.00,VWS V14.01,2013-03-09 02:50:00,
2013-03-08 21:55:00,44.4,32.6,30.22,WNW,294,0.0,0.0,63,0.00,,CLR,0.00,VWS V14.01,2013-03-09 02:55:00,
2013-03-08 22:00:00,44.3,32.1,30.22,WNW,294,0.0,1.0,62,0.00,,CLR,0.00,VWS V14.01,2013-03-09 03:00:00,
2013-03-08 22:05:00,44.4,32.2,30.22,WNW,294,0.0,2.0,62,0.00,,CLR,0.00,VWS V14.01,2013-03-09 03:05:00,
2013-03-08 22:10:00,44.5,31.9,30.22,WNW,294,1.0,2.0,61,0.00,,CLR,0.00,VWS V14.01,2013-03-09 03:10:00,
2013-03-08 22:15:00,44.6,31.6,30.22,WNW,294,0.0,2.0,60,0.00,,CLR,0.00,VWS V14.01,2013-03-09 03:15:00,
2013-03-08 22:20:00,44.7,31.7,30.22,WNW,294,1.0,2.0,60,0.00,,CLR,0.00,VWS V14.01,2013-03-09 03:20:00,
2013-03-08 22:25:00,44.8,31.8,30.22,WNW,294,0.0,2.0,60,0.00,,CLR,0.00,VWS V14.01,2013-03-09 03:25:00,
2013-03-08 22:30:00,44.9,31.9,30.22,WNW,294,0.0,1.0,60,0.00,,CLR,0.00,VWS V14.01,2013-03-09 03:30:00,
2013-03-08 22:35:00,44.7,31.7,30.22,WNW,294,1.0,1.0,60,0.00,,CLR,0.00,VWS V14.01,2013-03-09 03:35:00,
2013-03-08 22:40:00,44.6,31.6,30.23,WNW,294,0.0,2.0,60,0.00,,CLR,0.00,VWS V14.01,2013-03-09 03:40:00,
2013-03-08 22:45:00,44.4,31.8,30.22,WNW,294,0.0,1.0,61,0.00,,CLR,0.00,VWS V14.01,2013-03-09 03:45:00,
2013-03-08 22:50:00,44.2,31.6,30.23,WNW,294,0.0,1.0,61,0.00,,CLR,0.00,VWS V14.01,2013-03-09 03:50:00,
2013-03-08 22:55:00,44.0,31.8,30.22,WNW,294,0.0,1.0,62,0.00,,CLR,0.00,VWS V14.01,2013-03-09 03:55:00,
2013-03-08 23:00:00,43.9,31.7,30.22,WNW,294,0.0,1.0,62,0.00,,CLR,0.00,VWS V14.01,2013-03-09 04:00:00,
2013-03-08 23:05:00,43.8,31.6,30.22,WNW,294,0.0,1.0,62,0.00,,CLR,0.00,VWS V14.01,2013-03-09 04:05:00,
2013-03-08 23:10:00,43.6,31.9,30.22,WNW,294,0.0,1.0,63,0.00,,CLR,0.00,VWS V14.01,2013-03-09 04:10:00,
2013-03-08 23:15:00,43.4,31.7,30.22,WNW,294,0.0,0.0,63,0.00,,CLR,0.00,VWS V14.01,2013-03-09 04:15:00,
2013-03-08 23:20:00,43.2,31.9,30.22,WNW,294,0.0,0.0,64,0.00,,CLR,0.00,VWS V14.01,2013-03-09 04:20:00,
2013-03-08 23:25:00,42.8,32.2,30.22,WNW,294,0.0,1.0,66,0.00,,CLR,0.00,VWS V14.01,2013-03-09 04:25:00,
2013-03-08 23:30:00,42.6,32.0,30.22,WNW,294,0.0,1.0,66,0.00,,CLR,0.00,VWS V14.01,2013-03-09 04:30:00,
2013-03-08 23:35:00,42.6,31.3,30.23,WNW,294,0.0,2.0,64,0.00,,CLR,0.00,VWS V14.01,2013-03-09 04:35:00,
2013-03-08 23:40:00,42.8,31.5,30.23,WNW,294,0.0,2.0,64,0.00,,CLR,0.00,VWS V14.01,2013-03-09 04:40:00,
2013-03-08 23:45:00,42.8,31.5,30.23,WNW,294,0.0,0.0,64,0.00,,CLR,0.00,VWS V14.01,2013-03-09 04:45:00,
2013-03-08 23:50:00,42.9,31.6,30.23,WNW,294,1.0,2.0,64,0.00,,CLR,0.00,VWS V14.01,2013-03-09 04:50:00,
2013-03-08 23:55:00,42.8,31.5,30.22,WNW,294,0.0,2.0,64,0.00,,CLR,0.00,VWS V14.01,2013-03-09 04:55:00,